Map

Track Data

SID SEASON NUMBER BASIN SUBBASIN NAME ISO_TIME NATURE LAT LON WMO_WIND WMO_PRES WMO_AGENCY TRACK_TYPE DIST2LAND LANDFALL IFLAG USA_AGENCY USA_ATCF_ID USA_LAT USA_LON USA_RECORD USA_STATUS USA_WIND USA_PRES USA_SSHS USA_R34_NE USA_R34_SE USA_R34_SW USA_R34_NW USA_R50_NE USA_R50_SE USA_R50_SW USA_R50_NW USA_R64_NE USA_R64_SE USA_R64_SW USA_R64_NW USA_POCI USA_ROCI USA_RMW USA_EYE TOKYO_LAT TOKYO_LON TOKYO_GRADE TOKYO_WIND TOKYO_PRES TOKYO_R50_DIR TOKYO_R50_LONG TOKYO_R50_SHORT TOKYO_R30_DIR TOKYO_R30_LONG TOKYO_R30_SHORT TOKYO_LAND CMA_LAT CMA_LON CMA_CAT CMA_WIND CMA_PRES HKO_LAT HKO_LON HKO_CAT HKO_WIND HKO_PRES NEWDELHI_LAT NEWDELHI_LON NEWDELHI_GRADE NEWDELHI_WIND NEWDELHI_PRES NEWDELHI_CI NEWDELHI_DP NEWDELHI_POCI REUNION_LAT REUNION_LON REUNION_TYPE REUNION_WIND REUNION_PRES REUNION_TNUM REUNION_CI REUNION_RMW REUNION_R34_NE REUNION_R34_SE REUNION_R34_SW REUNION_R34_NW REUNION_R50_NE REUNION_R50_SE REUNION_R50_SW REUNION_R50_NW REUNION_R64_NE REUNION_R64_SE REUNION_R64_SW REUNION_R64_NW BOM_LAT BOM_LON BOM_TYPE BOM_WIND BOM_PRES BOM_TNUM BOM_CI BOM_RMW BOM_R34_NE BOM_R34_SE BOM_R34_SW BOM_R34_NW BOM_R50_NE BOM_R50_SE BOM_R50_SW BOM_R50_NW BOM_R64_NE BOM_R64_SE BOM_R64_SW BOM_R64_NW BOM_ROCI BOM_POCI BOM_EYE BOM_POS_METHOD BOM_PRES_METHOD NADI_LAT NADI_LON NADI_CAT NADI_WIND NADI_PRES WELLINGTON_LAT WELLINGTON_LON WELLINGTON_WIND WELLINGTON_PRES DS824_LAT DS824_LON DS824_STAGE DS824_WIND DS824_PRES TD9636_LAT TD9636_LON TD9636_STAGE TD9636_WIND TD9636_PRES TD9635_LAT TD9635_LON TD9635_WIND TD9635_PRES TD9635_ROCI NEUMANN_LAT NEUMANN_LON NEUMANN_CLASS NEUMANN_WIND NEUMANN_PRES MLC_LAT MLC_LON MLC_CLASS MLC_WIND MLC_PRES USA_GUST BOM_GUST BOM_GUST_PER REUNION_GUST REUNION_GUST_PER USA_SEAHGT USA_SEARAD_NE USA_SEARAD_SE USA_SEARAD_SW USA_SEARAD_NW STORM_SPEED STORM_DIR
1951037S07074 1951 10 SI MM NOT_NAMED 1951-02-06 06:00:00 TS -6.70000 73.9000 main 1590 1590 O________OO___ jtwc_sh SH161951 -6.70000 73.9000 -1 -6.70000 73.9000 TC 25 -6.70000 73.9000 7 12 222
1951037S07074 1951 10 SI MM NOT_NAMED 1951-02-06 09:00:00 TS -7.15222 73.4978 main 1660 1660 P________PP___ SH161951 -7.15006 73.5026 -1 -7.15006 73.5026 TC 25 -7.15655 73.4882 7 12 222
1951037S07074 1951 10 SI MM NOT_NAMED 1951-02-06 12:00:00 TS -7.60345 73.0936 main 1720 1720 O________OP___ jtwc_sh SH161951 -7.60000 73.1000 -1 -7.60000 73.1000 TC 25 -7.61036 73.0808 7 12 222
1951037S07074 1951 10 SI MM NOT_NAMED 1951-02-06 15:00:00 TS -8.05298 72.6893 main 1791 1791 P________PP___ SH161951 -8.04998 72.6924 -1 -8.04998 72.6924 TC 30 -8.05897 72.6830 7 12 221
1951037S07074 1951 10 SI MM NOT_NAMED 1951-02-06 18:00:00 TS -8.50000 72.3000 main 1851 1851 O________OO___ jtwc_sh SH161951 -8.50000 72.3000 -1 -8.50000 72.3000 TC 35 -8.50000 72.3000 2 12 220
1951037S07074 1951 10 SI MM NOT_NAMED 1951-02-06 21:00:00 TS -8.94450 71.9400 main 1912 1912 P________PP___ SH161951 -8.94994 71.9424 -1 -8.94994 71.9424 TC 35 -8.93360 71.9352 2 11 218
1951037S07074 1951 10 SI MM NOT_NAMED 1951-02-07 00:00:00 TS -9.38993 71.5948 main 1913 1859 O________OP___ jtwc_sh SH161951 -9.40000 71.6000 -1 -9.40000 71.6000 TC 35 -9.36980 71.5843 2 11 218
1951037S07074 1951 10 SI MM NOT_NAMED 1951-02-07 03:00:00 TS -9.83035 71.2470 main 1851 1790 P________PP___ SH161951 -9.83497 71.2499 -1 -9.83497 71.2499 TC 35 -9.82111 71.2413 2 11 217
1951037S07074 1951 10 SI MM NOT_NAMED 1951-02-07 06:00:00 TS -10.3000 70.9000 reunion main 1790 1729 O________OO___ jtwc_sh SH161951 -10.3000 70.9000 -1 -10.3000 70.9000 TC 35 -10.3000 70.9000 2 12 214
1951037S07074 1951 10 SI MM NOT_NAMED 1951-02-07 09:00:00 TS -10.8344 70.5459 main 1720 1653 P________PP___ SH161951 -10.8350 70.5499 -1 -10.8350 70.5499 TC 35 -10.8334 70.5379 2 13 212
1951037S07074 1951 10 SI MM NOT_NAMED 1951-02-07 12:00:00 TS -11.3975 70.1925 main 1653 1593 O________OP___ jtwc_sh SH161951 -11.4000 70.2000 -1 -11.4000 70.2000 TC 35 -11.3925 70.1776 2 13 212
1951037S07074 1951 10 SI MM NOT_NAMED 1951-02-07 15:00:00 TS -11.9618 69.8378 main 1578 1518 P________PP___ SH161951 -11.9650 69.8425 -1 -11.9650 69.8425 TC 35 -11.9553 69.8285 2 13 212
1951037S07074 1951 10 SI MM NOT_NAMED 1951-02-07 18:00:00 TS -12.5000 69.5000 main 1518 1466 O________OO___ jtwc_sh SH161951 -12.5000 69.5000 -1 -12.5000 69.5000 TC 35 -12.5000 69.5000 2 12 212
1951037S07074 1951 10 SI MM NOT_NAMED 1951-02-07 21:00:00 TS -12.9636 69.1948 main 1460 1408 P________PP___ SH161951 -12.9575 69.1848 -1 -12.9575 69.1848 TC 35 -12.9759 69.2146 2 11 212
1951037S07074 1951 10 SI MM NOT_NAMED 1951-02-08 00:00:00 TS -13.4115 68.9162 main 1408 1359 O________OP___ jtwc_sh SH161951 -13.4000 68.9000 -1 -13.4000 68.9000 TC 35 -13.4346 68.9485 2 11 209
1951037S07074 1951 10 SI MM NOT_NAMED 1951-02-08 03:00:00 TS -13.8852 68.6659 main 1359 1302 P________PP___ SH161951 -13.8774 68.6572 -1 -13.8774 68.6572 TC 35 -13.9009 68.6832 2 11 207
1951037S07074 1951 10 SI MM NOT_NAMED 1951-02-08 06:00:00 TS -14.4000 68.4000 reunion main 1302 1246 O________OO___ jtwc_sh SH161951 -14.4000 68.4000 -1 -14.4000 68.4000 TC 35 -14.4000 68.4000 2 12 208
1951037S07074 1951 10 SI MM NOT_NAMED 1951-02-08 09:00:00 TS -14.9767 68.0684 main 1241 1171 P________PP___ SH161951 -14.9850 68.0650 -1 -14.9850 68.0650 TC 35 -14.9600 68.0754 2 14 209
1951037S07074 1951 10 SI MM NOT_NAMED 1951-02-08 12:00:00 TS -15.5850 67.7098 main 1171 1112 O________OP___ jtwc_sh SH161951 -15.6000 67.7000 -1 -15.6000 67.7000 TC 35 -15.5550 67.7295 2 14 209
1951037S07074 1951 10 SI MM NOT_NAMED 1951-02-08 15:00:00 TS -16.1858 67.3611 main 1112 1045 P________PP___ SH161951 -16.1924 67.3572 -1 -16.1924 67.3572 TC 35 -16.1725 67.3689 2 14 209
1951037S07074 1951 10 SI MM NOT_NAMED 1951-02-08 18:00:00 TS -16.8000 67.0000 main 1045 981 O________OO___ jtwc_sh SH161951 -16.8000 67.0000 -1 -16.8000 67.0000 TC 35 -16.8000 67.0000 2 15 210
1951037S07074 1951 10 SI MM NOT_NAMED 1951-02-08 21:00:00 TS -17.4460 66.6067 main 981 915 P________PP___ SH161951 -17.4500 66.6000 -1 -17.4500 66.6000 TC 35 -17.4381 66.6201 2 15 210
1951037S07074 1951 10 SI MM NOT_NAMED 1951-02-09 00:00:00 TS -18.0933 66.2117 main 915 867 O________OP___ jtwc_sh SH161951 -18.1000 66.2000 -1 -18.1000 66.2000 TC 35 -18.0800 66.2352 2 15 210
1951037S07074 1951 10 SI MM NOT_NAMED 1951-02-09 03:00:00 TS -18.7122 65.8424 main 857 813 P________PP___ SH161951 -18.7149 65.8348 -1 -18.7149 65.8348 TC 35 -18.7069 65.8576 2 14 209
1951037S07074 1951 10 SI MM NOT_NAMED 1951-02-09 06:00:00 TS -19.3000 65.5000 reunion main 813 774 O________OO___ jtwc_sh SH161951 -19.3000 65.5000 -1 -19.3000 65.5000 TC 35 -19.3000 65.5000 2 13 208
1951037S07074 1951 10 SI MM NOT_NAMED 1951-02-09 09:00:00 TS -19.8628 65.1860 main 773 740 P________PP___ SH161951 -19.8724 65.1923 -1 -19.8724 65.1923 TC 35 -19.8437 65.1734 2 12 208
1951037S07074 1951 10 SI MM NOT_NAMED 1951-02-09 12:00:00 TS -20.3840 64.8896 main 740 710 O________OP___ jtwc_sh SH161951 -20.4000 64.9000 -1 -20.4000 64.9000 TC 35 -20.3520 64.8688 2 11 209
1951037S07074 1951 10 SI MM NOT_NAMED 1951-02-09 15:00:00 TS -20.8547 64.5931 main 710 683 P________PP___ SH161951 -20.8649 64.5997 -1 -20.8649 64.5997 TC 35 -20.8344 64.5798 2 11 211
1951037S07074 1951 10 SI MM NOT_NAMED 1951-02-09 18:00:00 TS -21.3000 64.3000 main 684 662 O________OO___ jtwc_sh SH161951 -21.3000 64.3000 -1 -21.3000 64.3000 TC 35 -21.3000 64.3000 2 11 212
1951037S07074 1951 10 SI MM NOT_NAMED 1951-02-09 21:00:00 TS -21.7533 64.0019 main 664 637 P________PP___ SH161951 -21.7500 63.9924 -1 -21.7500 63.9924 TC 35 -21.7600 64.0210 2 12 216
1951037S07074 1951 10 SI MM NOT_NAMED 1951-02-10 00:00:00 TS -22.2421 63.5652 main 637 619 O________OP___ jtwc_sh SH161951 -22.2000 63.7000 -1 -22.2000 63.7000 TC 35 -22.2071 63.7487 2 13 216
1951037S07074 1951 10 SI MM NOT_NAMED 1951-02-10 03:00:00 TS -22.7859 63.2014 main 623 615 P________PP___ SH161951 -22.6424 63.4496 -1 -22.6424 63.4496 TC 50 -22.6507 63.4772 2 13 209
1951037S07074 1951 10 SI MM NOT_NAMED 1951-02-10 06:00:00 TS -23.3600 62.8800 reunion main 626 617 O____O___OO___ jtwc_sh SH161951 -23.1000 63.2000 -1 -24.4000 61.6000 99 9.90000 -23.1000 63.2000 TC 65 -23.1000 63.2000 4 13 207
1951037S07074 1951 10 SI MM NOT_NAMED 1951-02-10 09:00:00 TS -23.9417 62.5723 main 631 629 P____P___PP___ SH161951 -23.6000 62.9075 -1 -24.5751 61.6743 99 -23.6000 62.9075 TC 65 -23.5760 62.8911 4 12 205
1951037S07074 1951 10 SI MM NOT_NAMED 1951-02-10 12:00:00 TS -24.4181 62.3451 main 642 642 O____P___OP___ jtwc_sh SH161951 -24.1000 62.6000 -1 -24.7502 61.7487 99 -24.1000 62.6000 TC 65 -24.0576 62.5778 4 10 204
1951037S07074 1951 10 SI MM NOT_NAMED 1951-02-10 15:00:00 TS -24.8404 62.1285 main 659 659 P____P___PP___ SH161951 -24.5650 62.2924 -1 -24.9253 61.8234 99 -24.5650 62.2924 TC 65 -24.5354 62.2755 4 9 205
1951037S07074 1951 10 SI MM NOT_NAMED 1951-02-10 18:00:00 TS -25.2148 61.9329 main 678 678 O____P___OO___ jtwc_sh SH161951 -25.0000 62.0000 -1 -25.1003 61.8983 99 -25.0000 62.0000 TC 65 -25.0000 62.0000 4 8 205
1951037S07074 1951 10 SI MM NOT_NAMED 1951-02-10 21:00:00 TS -25.5417 61.7588 main 698 698 P____P___PP___ SH161951 -25.4000 61.7273 -1 -25.2753 61.9734 99 -25.4000 61.7273 TC 65 -25.4392 61.7504 4 7 206
1951037S07074 1951 10 SI MM NOT_NAMED 1951-02-11 00:00:00 TS -25.8422 61.5975 main 713 713 O____P___OP___ jtwc_sh SH161951 -25.8000 61.5000 -1 -25.4503 62.0487 99 -25.8000 61.5000 TC 65 -25.8648 61.5320 4 7 204
1951037S07074 1951 10 SI MM NOT_NAMED 1951-02-11 03:00:00 TS -26.2057 61.4392 main 740 740 P____P___PP___ SH161951 -26.2499 61.3274 -1 -25.6252 62.1243 99 -26.2499 61.3274 TC 65 -26.2830 61.3476 4 8 200
1951037S07074 1951 10 SI MM NOT_NAMED 1951-02-11 06:00:00 TS -26.6308 61.2769 reunion main 774 774 O____O___OO___ jtwc_sh SH161951 -26.7000 61.2000 -1 -25.8000 62.2000 99 9.90000 -26.7000 61.2000 TC 65 -26.7000 61.2000 4 10 199
1951037S07074 1951 10 SI MM NOT_NAMED 1951-02-11 09:00:00 TS -27.1123 61.0821 main 814 814 P________PP___ SH161951 -27.1000 61.0849 -1 99 -27.1000 61.0849 TC 50 -27.1370 61.0764 4 9 196
1951037S07074 1951 10 SI MM NOT_NAMED 1951-02-11 12:00:00 TS -27.5241 60.9965 main 850 850 O________OP___ jtwc_sh SH161951 -27.5000 61.0000 -1 99 -27.5000 61.0000 TC 35 -27.5723 60.9895 4 9 189
1951037S07074 1951 10 SI MM NOT_NAMED 1951-02-11 15:00:00 TS -27.9655 60.9343 main 898 898 P________PP___ SH161951 -27.9500 60.9350 -1 99 -27.9500 60.9350 TC 30 -27.9965 60.9329 4 9 186
1951037S07074 1951 10 SI MM NOT_NAMED 1951-02-11 18:00:00 TS -28.4000 60.9000 main 940 940 O________OO___ jtwc_sh SH161951 -28.4000 60.9000 -1 99 -28.4000 60.9000 TC 25 -28.4000 60.9000 7 8 182
1951037S07074 1951 10 SI MM NOT_NAMED 1951-02-11 21:00:00 TS -28.8071 60.8899 main 981 981 P________PP___ SH161951 -28.8225 60.8924 -1 99 -28.8225 60.8924 TC 25 -28.7763 60.8848 7 8 0
1951037S07074 1951 10 SI MM NOT_NAMED 1951-02-12 00:00:00 TS -29.1767 60.8942 main 1020 1020 O________OP___ jtwc_sh SH161951 -29.2000 60.9000 -1 99 -29.2000 60.9000 TC 25 -29.1301 60.8825 7 7 179
1951037S07074 1951 10 SI MM NOT_NAMED 1951-02-12 03:00:00 TS -29.5013 60.8980 main 1049 1049 P________PP___ SH161951 -29.5175 60.9025 -1 99 -29.5175 60.9025 TC 25 -29.4688 60.8890 7 6 0
1951037S07074 1951 10 SI MM NOT_NAMED 1951-02-12 06:00:00 TS -29.8000 60.9000 main 1077 O________OO___ jtwc_sh SH161951 -29.8000 60.9000 -1 -29.8000 60.9000 TC 25 -29.8000 60.9000 1 6 0

About IBTrACS Database

This database is a web-friendly format of International Best Track Archive for Climate Stewardship (IBTrACS), a global best track data archive curated by NOAA dating back to 1842.

Updated: 2021-10-21